Time;durP1;ratioP1;P1;durP2;ratioP2;P2;SDS_P1;SDS_P2;PMS_P1;PMS_P2;Temp;Humidity;BMP_temperature;BMP_pressure;BME280_temperature;BME280_humidity;BME280_pressure;Samples;Min_cycle;Max_cycle;Signal;HPM_P1;HPM_P2
2022/04/01 00:00:18;;;;;;;6.65;1.80;;;;;;;2.76;75.40;99484.44;5263502;28;20043;-76
2022/04/01 00:02:48;;;;;;;3.95;1.88;;;;;;;2.71;75.97;99491.44;5263168;28;20028;-76
2022/04/01 00:05:18;;;;;;;4.80;1.73;;;;;;;2.75;77.05;99493.06;5263419;28;20953;-76
2022/04/01 00:07:49;;;;;;;7.22;1.83;;;;;;;2.51;78.36;99489.28;5262195;28;20215;-76
2022/04/01 00:10:19;;;;;;;7.90;2.00;;;;;;;2.35;80.52;99489.63;5262792;28;20057;-75
2022/04/01 00:12:49;;;;;;;7.68;2.10;;;;;;;2.31;82.84;99494.00;5262827;28;20614;-76
2022/04/01 00:15:19;;;;;;;4.55;2.00;;;;;;;2.21;83.96;99496.78;5263038;28;20110;-76
2022/04/01 00:17:50;;;;;;;4.93;2.10;;;;;;;2.16;85.97;99503.75;5262444;28;20020;-76
2022/04/01 00:20:20;;;;;;;4.18;1.83;;;;;;;2.00;87.25;99497.22;5263005;28;20032;-75
2022/04/01 00:22:50;;;;;;;5.43;1.75;;;;;;;1.98;89.21;99506.69;5263054;28;20631;-77
2022/04/01 00:25:21;;;;;;;8.00;2.20;;;;;;;1.83;91.21;99505.22;5260000;28;20153;-77
2022/04/01 00:27:52;;;;;;;4.95;2.00;;;;;;;1.85;92.72;99507.78;5262457;28;20028;-77
2022/04/01 00:30:23;;;;;;;6.22;2.40;;;;;;;1.84;94.39;99501.78;5258654;28;20115;-76
2022/04/01 00:32:53;;;;;;;3.90;2.05;;;;;;;1.67;97.19;99505.53;5252322;28;20103;-77
2022/04/01 00:35:23;;;;;;;6.95;2.20;;;;;;;1.51;100.00;99513.53;5261547;28;20028;-77
2022/04/01 00:37:54;;;;;;;7.53;2.50;;;;;;;1.53;100.00;99519.50;5262556;28;20504;-77
2022/04/01 00:40:24;;;;;;;7.35;2.60;;;;;;;1.33;100.00;99512.13;5262838;28;20028;-77
2022/04/01 00:42:54;;;;;;;8.05;2.60;;;;;;;1.17;100.00;99514.94;5262320;28;20024;-77
2022/04/01 00:45:24;;;;;;;4.60;2.33;;;;;;;1.16;100.00;99508.94;5245307;28;20049;-77
2022/04/01 00:48:01;;;;;;;5.50;2.63;;;;;;;1.24;100.00;99522.53;5262245;28;20476;-77
2022/04/01 00:50:32;;;;;;;7.90;2.65;;;;;;;1.17;100.00;99525.22;5263019;28;20478;-77
2022/04/01 00:53:03;;;;;;;6.10;2.63;;;;;;;1.10;100.00;99515.91;5262308;28;20066;-76
2022/04/01 00:55:33;;;;;;;6.20;2.97;;;;;;;1.10;100.00;99516.75;5262146;28;20063;-76
2022/04/01 00:58:05;;;;;;;5.88;2.88;;;;;;;0.99;100.00;99520.34;5261943;28;20086;-77
2022/04/01 01:00:36;;;;;;;6.97;2.85;;;;;;;1.06;100.00;99519.41;5262655;28;20024;-77
2022/04/01 01:03:07;;;;;;;6.70;3.08;;;;;;;0.94;100.00;99523.00;5262443;28;20036;-76
2022/04/01 01:05:37;;;;;;;6.88;3.20;;;;;;;0.88;100.00;99528.22;5262820;28;20393;-76
2022/04/01 01:08:08;;;;;;;5.30;3.08;;;;;;;0.98;100.00;99527.22;5261949;28;20043;-77
2022/04/01 01:10:39;;;;;;;5.53;3.28;;;;;;;1.01;100.00;99518.59;5258377;28;20035;-77
2022/04/01 01:13:10;;;;;;;7.20;3.05;;;;;;;0.82;100.00;99512.03;5262561;28;20396;-77
2022/04/01 01:15:40;;;;;;;6.28;3.00;;;;;;;0.99;100.00;99521.22;5262577;28;20032;-77
2022/04/01 01:18:15;;;;;;;8.02;3.20;;;;;;;1.07;100.00;99519.38;5261619;28;20052;-77
2022/04/01 01:20:45;;;;;;;6.68;3.58;;;;;;;1.01;100.00;99519.47;5265373;28;20056;-77
2022/04/01 01:23:15;;;;;;;7.53;3.10;;;;;;;0.83;100.00;99517.16;5266840;28;20032;-77
2022/04/01 01:25:46;;;;;;;5.60;3.33;;;;;;;0.73;100.00;99518.13;5266345;28;20031;-77
2022/04/01 01:28:17;;;;;;;8.38;4.07;;;;;;;0.91;100.00;99512.75;5266200;28;20028;-77
2022/04/01 01:30:47;;;;;;;8.93;3.30;;;;;;;0.80;100.00;99527.50;5266565;28;20016;-77
2022/04/01 01:33:24;;;;;;;6.85;3.72;;;;;;;0.75;100.00;99524.09;5266532;28;20026;-77
2022/04/01 01:35:54;;;;;;;7.18;3.72;;;;;;;0.62;100.00;99527.72;5266582;28;20028;-77
2022/04/01 01:38:24;;;;;;;8.57;3.63;;;;;;;0.76;100.00;99525.81;5265852;28;20031;-77
2022/04/01 01:40:54;;;;;;;10.80;3.72;;;;;;;0.70;100.00;99528.47;5266014;28;20115;-77
2022/04/01 01:43:25;;;;;;;8.85;3.83;;;;;;;0.67;100.00;99523.38;5266536;28;20032;-77
2022/04/01 01:45:55;;;;;;;7.32;3.95;;;;;;;0.70;100.00;99523.31;5266299;28;20469;-77
2022/04/01 01:48:26;;;;;;;9.60;4.35;;;;;;;0.66;100.00;99516.53;5266215;28;20078;-77
2022/04/01 01:56:34;;;;;;;8.48;4.10;;;;;;;0.44;100.00;99517.69;5266435;28;20128;-76
2022/04/01 01:59:05;;;;;;;9.02;4.57;;;;;;;0.52;100.00;99521.00;5264438;28;20020;-76
2022/04/01 02:01:35;;;;;;;11.65;4.38;;;;;;;0.57;100.00;99519.22;5247229;28;20032;-77
2022/04/01 02:04:06;;;;;;;11.05;3.83;;;;;;;0.68;100.00;99535.34;5265840;28;20040;-77
2022/04/01 02:06:36;;;;;;;9.85;4.47;;;;;;;0.59;100.00;99529.47;5265952;28;20056;-76
2022/04/01 02:09:06;;;;;;;10.73;4.22;;;;;;;0.39;100.00;99534.84;5265761;28;20024;-76
2022/04/01 02:11:37;;;;;;;9.52;4.60;;;;;;;0.53;100.00;99545.00;5265425;28;20120;-76
2022/04/01 02:14:07;;;;;;;9.52;4.25;;;;;;;0.46;100.00;99527.94;5265639;28;20111;-77
2022/04/01 02:16:39;;;;;;;7.90;4.20;;;;;;;0.41;100.00;99524.56;5265636;28;20024;-77
2022/04/01 02:19:20;;;;;;;9.25;4.68;;;;;;;0.47;100.00;99527.91;5261521;28;20032;-77
2022/04/01 02:21:53;;;;;;;8.48;4.88;;;;;;;0.38;100.00;99542.59;5265233;28;20035;-76
2022/04/01 02:24:24;;;;;;;11.55;4.68;;;;;;;0.40;100.00;99533.97;5265615;28;20036;-76
2022/04/01 02:26:55;;;;;;;7.65;4.13;;;;;;;0.59;100.00;99538.03;5265668;28;20031;-77
2022/04/01 02:29:25;;;;;;;10.43;4.80;;;;;;;0.52;100.00;99545.88;5265665;28;20388;-77
2022/04/01 02:31:56;;;;;;;11.68;4.38;;;;;;;0.56;100.00;99545.78;5264033;28;20034;-76
2022/04/01 02:34:27;;;;;;;7.00;4.10;;;;;;;0.65;100.00;99545.69;5265105;28;20024;-77
2022/04/01 02:36:59;;;;;;;14.20;4.70;;;;;;;0.63;100.00;99541.41;5265315;28;20476;-77
2022/04/01 02:39:29;;;;;;;8.57;4.45;;;;;;;0.69;100.00;99554.22;5265378;28;20040;-76
2022/04/01 02:41:59;;;;;;;7.38;4.38;;;;;;;0.62;100.00;99544.84;5264126;28;20671;-77
2022/04/01 02:44:29;;;;;;;8.43;4.28;;;;;;;0.40;100.00;99544.25;5265244;28;20405;-77
2022/04/01 02:47:00;;;;;;;9.15;4.15;;;;;;;0.38;100.00;99556.28;5265106;28;20261;-76
2022/04/01 02:49:30;;;;;;;8.10;3.95;;;;;;;0.38;100.00;99563.16;5265582;28;20112;-76
2022/04/01 02:52:00;;;;;;;15.80;4.85;;;;;;;0.43;100.00;99551.97;5263899;28;20138;-77
2022/04/01 02:54:33;;;;;;;10.20;3.83;;;;;;;0.54;100.00;99552.66;5265118;28;20469;-77
2022/04/01 02:57:04;;;;;;;7.95;4.05;;;;;;;0.33;100.00;99557.19;5264448;28;20038;-77
2022/04/01 02:59:34;;;;;;;8.45;3.78;;;;;;;0.34;100.00;99559.75;5264742;28;20489;-77
2022/04/01 03:02:05;;;;;;;10.82;4.85;;;;;;;0.41;100.00;99560.53;5264565;28;20085;-76
2022/04/01 03:04:35;;;;;;;7.28;4.55;;;;;;;0.29;100.00;99566.66;5265417;28;20504;-77
2022/04/01 03:07:06;;;;;;;12.77;4.22;;;;;;;0.36;100.00;99573.44;5264912;28;20582;-76
2022/04/01 03:09:36;;;;;;;7.47;4.57;;;;;;;0.41;100.00;99571.66;5264326;28;20031;-77
2022/04/01 03:12:07;;;;;;;8.68;5.03;;;;;;;0.42;100.00;99567.38;5263624;28;20067;-77
2022/04/01 03:14:37;;;;;;;7.88;4.40;;;;;;;0.36;100.00;99568.28;5264936;28;20385;-76
2022/04/01 03:17:08;;;;;;;11.13;5.22;;;;;;;0.32;100.00;99561.50;5264487;28;20492;-77
2022/04/01 03:19:39;;;;;;;11.18;5.22;;;;;;;0.27;100.00;99567.53;5265224;28;20393;-76
2022/04/01 03:22:09;;;;;;;8.40;4.45;;;;;;;0.33;100.00;99578.59;5260848;28;20090;-76
2022/04/01 03:24:40;;;;;;;8.73;4.53;;;;;;;0.33;100.00;99576.03;5265204;28;20024;-76
2022/04/01 03:27:10;;;;;;;8.73;5.05;;;;;;;0.11;100.00;99572.00;5247672;28;20119;-76
2022/04/01 03:29:41;;;;;;;11.20;4.85;;;;;;;0.32;100.00;99578.63;5265279;28;20027;-77
2022/04/01 03:32:11;;;;;;;10.40;5.00;;;;;;;0.28;100.00;99582.97;5264225;28;20496;-77
2022/04/01 03:34:41;;;;;;;10.57;5.45;;;;;;;0.35;100.00;99571.72;5264984;28;20473;-77
2022/04/01 03:37:11;;;;;;;15.23;5.55;;;;;;;0.40;100.00;99577.66;5264285;28;20116;-76
2022/04/01 03:39:42;;;;;;;10.73;5.05;;;;;;;0.38;100.00;99586.28;5265027;28;20057;-77
2022/04/01 03:42:13;;;;;;;11.40;5.25;;;;;;;0.34;100.00;99575.16;5264170;28;20032;-77
2022/04/01 03:44:43;;;;;;;10.38;4.95;;;;;;;0.45;100.00;99586.19;5264173;28;20039;-77
2022/04/01 03:47:21;;;;;;;8.90;5.03;;;;;;;0.34;100.00;99585.44;5264388;28;20032;-76
2022/04/01 03:50:01;;;;;;;11.15;5.40;;;;;;;0.40;100.00;99581.97;5264648;28;20024;-77
2022/04/01 03:52:32;;;;;;;8.07;4.85;;;;;;;0.36;100.00;99583.72;5263966;28;20059;-77
2022/04/01 03:55:08;;;;;;;8.40;5.15;;;;;;;0.30;100.00;99586.34;5263837;28;20051;-77
2022/04/01 03:57:40;;;;;;;10.13;4.95;;;;;;;0.28;100.00;99576.94;5263295;28;20081;-77
2022/04/01 04:00:13;;;;;;;9.05;5.40;;;;;;;0.37;100.00;99577.69;5263414;28;20036;-77
2022/04/01 04:02:44;;;;;;;9.93;5.43;;;;;;;0.48;100.00;99585.28;5264131;28;20099;-77
2022/04/01 04:05:18;;;;;;;11.45;4.88;;;;;;;0.36;100.00;99581.13;5268331;28;20099;-77
2022/04/01 04:07:49;;;;;;;10.95;5.10;;;;;;;0.31;100.00;99580.34;5272598;28;20484;-77
2022/04/01 04:10:21;;;;;;;14.13;5.95;;;;;;;0.19;100.00;99579.63;5270105;28;20141;-77
2022/04/01 04:12:52;;;;;;;12.52;5.40;;;;;;;0.12;100.00;99576.28;5263909;28;20040;-77
2022/04/01 04:15:28;;;;;;;9.27;5.28;;;;;;;0.17;100.00;99584.78;5264345;28;20039;-77
2022/04/01 04:18:01;;;;;;;11.73;5.78;;;;;;;-0.02;100.00;99596.09;5263933;28;20042;-77
2022/04/01 04:20:39;;;;;;;12.40;6.10;;;;;;;-0.02;100.00;99596.09;5263825;28;20024;-77
2022/04/01 04:23:22;;;;;;;9.52;5.63;;;;;;;0.00;100.00;99603.78;5260949;28;20177;-77
2022/04/01 04:26:01;;;;;;;14.00;5.82;;;;;;;-0.12;100.00;99606.47;5269145;28;20015;-77
2022/04/01 04:28:37;;;;;;;11.25;5.60;;;;;;;-0.07;100.00;99611.56;5262713;28;20102;-77
2022/04/01 04:31:09;;;;;;;12.32;6.15;;;;;;;-0.17;100.00;99612.50;5262876;28;20075;-76
2022/04/01 04:33:45;;;;;;;10.60;5.80;;;;;;;0.00;100.00;99611.50;5258811;28;20023;-77
2022/04/01 04:36:17;;;;;;;13.88;5.88;;;;;;;-0.19;100.00;99611.66;5263378;28;20028;-77
2022/04/01 04:38:50;;;;;;;11.70;6.10;;;;;;;-0.08;100.00;99625.25;5263894;28;20020;-77
2022/04/01 04:41:21;;;;;;;10.48;5.30;;;;;;;-0.11;100.00;99626.13;5263332;28;20095;-76
2022/04/01 04:43:53;;;;;;;9.93;5.22;;;;;;;-0.04;100.00;99625.19;5263353;28;20036;-76
2022/04/01 04:46:26;;;;;;;10.27;5.18;;;;;;;-0.06;100.00;99614.09;5245725;28;20654;-77
2022/04/01 04:48:57;;;;;;;9.20;5.03;;;;;;;-0.03;100.00;99623.50;5263445;28;20032;-77
2022/04/01 04:51:28;;;;;;;13.13;5.60;;;;;;;-0.21;100.00;99628.78;5262998;28;20104;-77
2022/04/01 04:54:01;;;;;;;9.40;4.65;;;;;;;-0.18;100.00;99633.91;5264000;28;20074;-77
2022/04/01 04:56:32;;;;;;;9.35;5.10;;;;;;;-0.12;100.00;99641.53;5267793;28;20505;-76
2022/04/01 04:59:05;;;;;;;10.57;5.35;;;;;;;-0.07;100.00;99642.38;5266082;28;20337;-77
2022/04/01 05:01:45;;;;;;;16.15;5.20;;;;;;;-0.19;100.00;99637.31;5266100;28;20020;-76
2022/04/01 05:04:39;;;;;;;8.98;4.78;;;;;;;-0.09;100.00;99649.19;5263362;28;20024;-76
2022/04/01 05:07:25;;;;;;;12.05;5.07;;;;;;;-0.24;100.00;99642.50;5262269;28;20089;-77
2022/04/01 05:10:16;;;;;;;8.82;4.60;;;;;;;-0.15;100.00;99652.69;5266705;28;20020;-76
2022/04/01 05:13:08;;;;;;;7.90;4.53;;;;;;;-0.18;100.00;99647.56;5261822;28;20042;-77
2022/04/01 05:15:40;;;;;;;10.75;4.38;;;;;;;-0.19;100.00;99645.03;5253841;28;20035;-77
2022/04/01 05:18:16;;;;;;;8.90;4.40;;;;;;;-0.16;100.00;99647.56;5249042;28;20517;-77
2022/04/01 05:20:52;;;;;;;7.80;4.45;;;;;;;-0.31;100.00;99652.81;5268298;28;20109;-77
2022/04/01 05:23:37;;;;;;;8.20;4.40;;;;;;;-0.21;100.00;99654.47;5270207;28;20035;-77
2022/04/01 05:26:13;;;;;;;9.20;4.47;;;;;;;-0.30;100.00;99669.91;5264949;28;20083;-78
2022/04/01 05:28:51;;;;;;;9.23;4.50;;;;;;;-0.25;100.00;99661.31;5260604;28;20031;-77
2022/04/01 05:31:45;;;;;;;8.40;3.97;;;;;;;-0.14;100.00;99672.38;5266003;28;20111;-77
2022/04/01 05:34:23;;;;;;;10.75;4.15;;;;;;;-0.07;100.00;99675.75;5262678;28;20059;-77
2022/04/01 05:36:54;;;;;;;9.60;4.20;;;;;;;-0.11;100.00;99674.91;5266243;28;20024;-77
2022/04/01 05:39:28;;;;;;;8.75;4.20;;;;;;;0.01;100.00;99674.81;5265346;28;20542;-77
2022/04/01 05:41:59;;;;;;;11.05;4.18;;;;;;;-0.11;100.00;99677.47;5265143;28;20066;-77
2022/04/01 05:44:30;;;;;;;7.85;3.85;;;;;;;0.09;100.00;99683.28;5266415;28;20120;-77
2022/04/01 05:47:01;;;;;;;8.35;3.80;;;;;;;-0.06;100.00;99685.16;5265965;28;20114;-77
2022/04/01 05:49:31;;;;;;;9.20;4.15;;;;;;;-0.13;100.00;99693.75;5266048;28;20516;-77
2022/04/01 05:52:01;;;;;;;10.35;3.78;;;;;;;-0.05;100.00;99692.81;5264967;28;20054;-77
2022/04/01 05:54:34;;;;;;;9.45;4.60;;;;;;;-0.05;100.00;99697.13;5266521;28;20057;-77
2022/04/01 05:57:10;;;;;;;6.95;3.60;;;;;;;0.09;100.00;99704.72;5264509;28;20036;-77
2022/04/01 05:59:41;;;;;;;10.15;4.65;;;;;;;0.11;100.00;99705.53;5262340;28;20454;-77
2022/04/01 06:02:12;;;;;;;11.20;3.80;;;;;;;-0.09;100.00;99714.25;5264430;28;20110;-77
2022/04/01 06:04:48;;;;;;;10.93;3.97;;;;;;;0.15;100.00;99701.22;5265961;28;20020;-77
2022/04/01 06:07:29;;;;;;;6.97;3.88;;;;;;;0.04;100.00;99703.03;5264445;28;20036;-77
2022/04/01 06:10:05;;;;;;;9.27;3.83;;;;;;;0.24;100.00;99707.13;5266289;28;20968;-77
2022/04/01 06:12:39;;;;;;;11.27;3.50;;;;;;;0.30;100.00;99701.09;5247674;28;20574;-77
2022/04/01 06:15:22;;;;;;;8.13;3.75;;;;;;;0.08;100.00;99709.84;5265992;28;20111;-77
2022/04/01 06:18:15;;;;;;;9.95;3.70;;;;;;;0.01;100.00;99714.16;5263443;28;20406;-77
2022/04/01 06:20:48;;;;;;;11.55;3.58;;;;;;;-0.01;100.00;99715.91;5262689;28;20073;-77
2022/04/01 06:23:29;;;;;;;7.68;3.70;;;;;;;0.14;100.00;99723.50;5264379;28;20445;-77
2022/04/01 06:26:00;;;;;;;8.68;3.92;;;;;;;-0.03;100.00;99727.03;5265894;28;20108;-77
2022/04/01 06:28:34;;;;;;;8.23;3.85;;;;;;;0.02;100.00;99725.31;5264648;28;20126;-77
2022/04/01 06:31:06;;;;;;;9.07;3.88;;;;;;;0.03;100.00;99722.72;5265903;28;20070;-77
2022/04/01 06:34:03;;;;;;;8.75;3.53;;;;;;;0.24;100.00;99732.81;5265236;28;20031;-77
2022/04/01 06:36:46;;;;;;;9.82;3.78;;;;;;;0.17;100.00;99728.59;5265151;28;20024;-78
2022/04/01 06:39:40;;;;;;;9.52;3.40;;;;;;;0.30;100.00;99735.34;5262782;28;20038;-77
2022/04/01 06:42:19;;;;;;;6.18;3.45;;;;;;;0.09;100.00;99743.22;5223758;28;20044;-77
2022/04/01 06:44:50;;;;;;;8.38;3.17;;;;;;;0.10;100.00;99734.66;5265504;28;20371;-77
2022/04/01 06:47:20;;;;;;;8.23;3.83;;;;;;;-0.13;100.00;99745.94;5265342;28;20039;-77
2022/04/01 06:49:50;;;;;;;7.63;3.35;;;;;;;0.00;100.00;99742.44;5265916;28;20039;-78
2022/04/01 06:52:21;;;;;;;9.38;4.22;;;;;;;-0.12;100.00;99741.66;5264981;28;20035;-77
2022/04/01 06:54:54;;;;;;;7.22;3.10;;;;;;;-0.10;100.00;99742.50;5265234;28;20054;-77
2022/04/01 06:57:24;;;;;;;9.40;4.00;;;;;;;0.05;100.00;99745.81;5264260;28;20028;-77
2022/04/01 06:59:55;;;;;;;8.65;3.53;;;;;;;-0.02;100.00;99744.13;5254903;28;20071;-77
2022/04/01 07:02:25;;;;;;;9.88;3.83;;;;;;;-0.10;100.00;99739.91;5264550;28;20069;-77
2022/04/01 07:04:56;;;;;;;6.43;3.35;;;;;;;0.10;100.00;99736.34;5265171;28;20087;-77
2022/04/01 07:07:26;;;;;;;7.22;3.50;;;;;;;0.21;100.00;99740.53;5264746;28;20028;-79
2022/04/01 07:09:56;;;;;;;8.73;4.07;;;;;;;0.20;100.00;99741.41;5265390;28;20028;-77
2022/04/01 07:12:27;;;;;;;6.70;3.08;;;;;;;0.34;100.00;99747.28;5263774;28;20062;-77
2022/04/01 07:14:58;;;;;;;6.05;3.53;;;;;;;0.59;98.25;99746.19;5264150;28;20030;-77
2022/04/01 07:17:41;;;;;;;10.55;3.40;;;;;;;0.75;97.01;99746.94;5264503;28;20123;-77
2022/04/01 07:20:12;;;;;;;6.63;3.42;;;;;;;0.63;97.57;99747.03;5259477;28;20031;-77
2022/04/01 07:22:42;;;;;;;10.30;3.40;;;;;;;0.93;95.67;99746.75;5262855;28;20032;-77
2022/04/01 07:25:13;;;;;;;10.85;3.58;;;;;;;0.98;92.91;99745.81;5264474;28;20193;-77
2022/04/01 07:27:43;;;;;;;6.55;3.30;;;;;;;1.24;91.03;99730.09;5263911;28;20118;-77
2022/04/01 07:30:13;;;;;;;8.10;3.33;;;;;;;1.25;89.28;99745.50;5263849;28;20031;-77
2022/04/01 07:32:44;;;;;;;7.50;2.92;;;;;;;1.21;88.79;99748.16;5246937;28;20027;-77
2022/04/01 07:35:14;;;;;;;5.78;3.13;;;;;;;1.48;88.77;99746.09;5264751;28;20074;-77
2022/04/01 07:37:46;;;;;;;6.07;3.17;;;;;;;1.67;86.66;99733.81;5264607;28;20124;-77
2022/04/01 07:40:18;;;;;;;6.65;3.28;;;;;;;1.88;84.09;99744.66;5264266;28;20101;-77
2022/04/01 07:42:49;;;;;;;8.52;2.90;;;;;;;1.74;84.70;99743.16;5264918;28;20023;-77
2022/04/01 07:45:19;;;;;;;8.35;3.30;;;;;;;2.04;81.18;99730.69;5246746;28;20032;-77
2022/04/01 07:47:51;;;;;;;7.68;3.00;;;;;;;2.21;82.40;99739.00;5264696;28;20047;-77
2022/04/01 07:50:22;;;;;;;9.93;3.10;;;;;;;2.01;81.47;99741.88;5264369;28;20020;-77
2022/04/01 07:52:53;;;;;;;12.48;3.20;;;;;;;2.13;77.93;99746.03;5264995;28;20020;-77
2022/04/01 07:55:23;;;;;;;7.68;2.92;;;;;;;2.18;77.65;99752.78;5249666;28;20511;-77
2022/04/01 07:57:56;;;;;;;8.23;3.20;;;;;;;2.11;76.94;99748.63;5264323;28;20047;-77
2022/04/01 08:00:26;;;;;;;8.25;3.10;;;;;;;1.92;76.47;99752.34;5264670;28;20477;-77
2022/04/01 08:02:57;;;;;;;5.00;2.70;;;;;;;2.08;78.12;99752.94;5264463;28;20051;-77
2022/04/01 08:05:27;;;;;;;5.78;2.63;;;;;;;2.28;75.29;99749.19;5264321;28;20034;-77
2022/04/01 08:07:57;;;;;;;5.93;2.75;;;;;;;2.08;74.42;99755.53;5263891;28;20036;-77
2022/04/01 08:10:28;;;;;;;8.55;3.05;;;;;;;1.97;75.18;99757.44;5263947;28;20039;-77
2022/04/01 08:12:58;;;;;;;11.25;3.00;;;;;;;2.00;75.28;99754.81;5263946;28;20082;-77
2022/04/01 08:15:28;;;;;;;8.15;3.45;;;;;;;2.04;75.56;99764.19;5263816;28;20032;-77
2022/04/01 08:17:59;;;;;;;5.20;2.65;;;;;;;2.21;74.26;99757.06;5263763;28;20028;-77
2022/04/01 08:20:30;;;;;;;7.85;2.92;;;;;;;2.30;75.20;99764.66;5263848;28;20061;-77
2022/04/01 08:23:00;;;;;;;6.20;2.80;;;;;;;2.35;76.06;99771.41;5263802;28;20032;-77
2022/04/01 08:25:30;;;;;;;5.88;2.60;;;;;;;2.38;74.96;99765.38;5264135;28;20096;-77
2022/04/01 08:28:01;;;;;;;5.95;2.80;;;;;;;2.37;73.85;99766.25;5263795;28;20498;-77
2022/04/01 08:30:32;;;;;;;9.18;2.83;;;;;;;2.35;73.36;99768.00;5263412;28;20024;-78
2022/04/01 08:33:02;;;;;;;4.93;2.97;;;;;;;2.55;73.81;99765.94;5264060;28;20473;-77
2022/04/01 08:35:33;;;;;;;6.35;2.65;;;;;;;2.63;73.29;99761.50;5263888;28;20035;-78
2022/04/01 08:38:04;;;;;;;5.28;2.63;;;;;;;2.52;73.70;99771.16;5263757;28;20035;-77
2022/04/01 08:40:34;;;;;;;7.45;3.08;;;;;;;2.79;74.22;99762.94;5263690;28;20496;-77
2022/04/01 08:43:05;;;;;;;8.32;2.83;;;;;;;2.89;71.83;99767.06;5263740;28;20024;-78
2022/04/01 08:45:37;;;;;;;5.03;2.60;;;;;;;3.09;72.46;99772.72;5263917;28;20028;-77
2022/04/01 08:48:10;;;;;;;6.90;2.53;;;;;;;2.97;70.92;99772.94;5263400;28;20031;-77
2022/04/01 08:50:41;;;;;;;5.38;2.65;;;;;;;2.52;71.59;99784.06;5259699;28;20107;-78
2022/04/01 08:53:12;;;;;;;6.07;2.60;;;;;;;2.77;72.06;99782.75;5262842;28;20119;-77
2022/04/01 08:55:54;;;;;;;7.38;2.65;;;;;;;2.67;72.70;99786.38;5263923;28;20537;-77
2022/04/01 08:58:25;;;;;;;6.40;2.53;;;;;;;2.83;73.77;99783.50;5263000;28;20059;-77
2022/04/01 09:00:57;;;;;;;6.47;2.60;;;;;;;3.21;72.82;99782.81;5263144;28;20052;-77
2022/04/01 09:03:30;;;;;;;6.72;2.45;;;;;;;3.09;70.46;99790.78;5263581;28;20039;-77
2022/04/01 09:06:03;;;;;;;4.70;2.28;;;;;;;3.27;71.15;99785.28;5263364;28;20501;-77
2022/04/01 09:08:37;;;;;;;5.85;2.45;;;;;;;3.41;71.33;99784.16;5263318;28;20322;-77
2022/04/01 09:11:08;;;;;;;5.35;2.75;;;;;;;3.20;70.60;99794.03;5262616;28;20028;-77
2022/04/01 09:13:42;;;;;;;4.53;2.35;;;;;;;3.56;70.56;99790.72;5262828;28;20490;-77
2022/04/01 09:16:26;;;;;;;5.32;2.20;;;;;;;2.99;68.61;99789.28;5262632;28;20409;-76
2022/04/01 09:19:00;;;;;;;5.28;2.25;;;;;;;3.21;70.29;99798.31;5263113;28;20077;-77
2022/04/01 09:21:32;;;;;;;4.40;2.17;;;;;;;3.64;70.04;99787.94;5262753;28;20028;-77
2022/04/01 09:24:03;;;;;;;5.78;2.38;;;;;;;3.45;69.40;99792.66;5262291;28;20047;-77
2022/04/01 09:26:37;;;;;;;7.63;2.20;;;;;;;3.62;69.48;99792.28;5262085;28;20020;-77
2022/04/01 09:29:10;;;;;;;4.88;2.15;;;;;;;3.83;66.73;99788.44;5266146;28;20573;-77
2022/04/01 09:31:41;;;;;;;4.90;2.33;;;;;;;3.79;68.05;99792.81;5258670;28;20031;-76
2022/04/01 09:34:13;;;;;;;4.30;1.92;;;;;;;3.65;67.46;99792.22;5261279;28;20333;-77
2022/04/01 09:36:44;;;;;;;4.60;1.98;;;;;;;3.56;67.43;99801.06;5242571;28;20024;-76
2022/04/01 09:39:17;;;;;;;5.72;2.17;;;;;;;4.09;67.71;99797.31;5260967;28;20338;-77
2022/04/01 09:41:50;;;;;;;6.45;1.77;;;;;;;3.82;66.72;99800.47;5264896;28;20024;-77
2022/04/01 09:44:29;;;;;;;4.55;2.20;;;;;;;3.84;66.14;99801.31;5266476;28;20024;-76
2022/04/01 09:47:03;;;;;;;4.93;2.17;;;;;;;3.68;67.50;99797.34;5266710;28;20525;-76
2022/04/01 09:49:39;;;;;;;4.90;2.08;;;;;;;3.88;66.92;99802.09;5266746;28;20385;-77
2022/04/01 09:52:14;;;;;;;5.03;1.65;;;;;;;3.81;66.07;99795.38;5266499;28;20024;-76
2022/04/01 09:54:51;;;;;;;6.78;1.90;;;;;;;4.08;66.16;99784.41;5263803;28;20052;-76
2022/04/01 09:57:24;;;;;;;3.83;1.77;;;;;;;4.21;64.94;99785.84;5251847;28;20031;-77
2022/04/01 09:59:54;;;;;;;6.07;2.00;;;;;;;4.00;62.73;99796.66;5267318;28;20032;-77
2022/04/01 10:02:26;;;;;;;3.10;1.50;;;;;;;4.00;61.17;99787.19;5264807;28;20034;-77
2022/04/01 10:04:58;;;;;;;3.47;1.60;;;;;;;3.96;62.12;99795.88;5265996;28;20031;-76
2022/04/01 10:07:30;;;;;;;2.85;1.40;;;;;;;3.98;64.26;99793.28;5265698;28;20677;-76
2022/04/01 10:10:01;;;;;;;7.72;1.85;;;;;;;4.07;61.14;99795.63;5266149;28;20032;-76
2022/04/01 10:12:40;;;;;;;3.55;1.55;;;;;;;4.05;63.35;99784.47;5264517;28;20508;-76
2022/04/01 10:15:10;;;;;;;3.67;1.50;;;;;;;3.92;61.70;99802.00;5265583;28;20073;-76
2022/04/01 10:17:41;;;;;;;9.35;1.50;;;;;;;3.97;61.49;99797.56;5265926;28;20443;-76
2022/04/01 10:20:14;;;;;;;3.45;1.38;;;;;;;3.98;61.33;99798.44;5265770;28;20111;-76
2022/04/01 10:22:45;;;;;;;4.63;1.73;;;;;;;3.99;63.84;99798.38;5264700;28;20021;-76
2022/04/01 10:25:20;;;;;;;3.60;1.85;;;;;;;4.25;61.71;99798.69;5265823;28;20112;-76
2022/04/01 10:27:55;;;;;;;5.70;1.60;;;;;;;4.20;61.60;99795.34;5264826;28;20393;-77
2022/04/01 10:30:26;;;;;;;3.10;1.40;;;;;;;4.18;60.41;99791.97;5264640;28;20067;-76
2022/04/01 10:32:56;;;;;;;3.63;1.45;;;;;;;4.25;60.41;99800.41;5263911;28;20129;-76
2022/04/01 10:35:30;;;;;;;6.03;1.52;;;;;;;4.25;61.98;99810.75;5265787;28;20043;-77
2022/04/01 10:38:06;;;;;;;3.03;1.40;;;;;;;4.00;60.15;99805.28;5262730;28;20118;-77
2022/04/01 10:40:39;;;;;;;2.83;1.33;;;;;;;4.30;61.15;99790.81;5263058;28;20027;-80
2022/04/01 10:43:14;;;;;;;2.58;1.10;;;;;;;4.08;62.36;99811.13;5260043;28;20375;-78
2022/04/01 10:46:04;;;;;;;3.38;1.40;;;;;;;4.20;60.42;99800.53;5264267;28;20161;-76
2022/04/01 10:51:38;;;;;;;4.22;1.48;;;;;;;4.10;61.18;99801.59;5261765;28;20531;-77
2022/04/01 10:54:12;;;;;;;3.00;1.60;;;;;;;4.20;60.51;99795.34;5264518;28;20505;-76
2022/04/01 10:57:07;;;;;;;4.25;1.48;;;;;;;4.10;59.73;99809.34;5260539;28;20278;-76
2022/04/01 10:59:42;;;;;;;4.70;1.50;;;;;;;4.20;60.58;99799.66;5246015;28;20042;-77
2022/04/01 11:02:18;;;;;;;3.85;1.60;;;;;;;4.44;60.53;99802.53;5259652;28;20024;-76
2022/04/01 11:04:53;;;;;;;4.47;1.50;;;;;;;4.48;60.92;99811.09;5264106;28;20097;-76
2022/04/01 11:07:23;;;;;;;7.60;1.60;;;;;;;4.40;58.77;99808.66;5263904;28;20055;-76
2022/04/01 11:09:56;;;;;;;2.70;1.47;;;;;;;4.27;59.18;99801.25;5262807;28;20027;-76
2022/04/01 11:12:39;;;;;;;4.55;1.60;;;;;;;4.43;60.13;99808.59;5262350;28;20266;-76
2022/04/01 11:15:19;;;;;;;3.90;1.45;;;;;;;4.66;61.09;99808.88;5263029;28;20028;-76
2022/04/01 11:17:55;;;;;;;3.30;1.58;;;;;;;4.62;59.60;99825.38;5263755;28;20143;-76
2022/04/01 11:20:29;;;;;;;4.70;1.60;;;;;;;4.52;58.18;99810.97;5263604;28;20051;-75
2022/04/01 11:23:04;;;;;;;5.28;1.73;;;;;;;4.63;57.68;99816.72;5263341;28;20094;-76
2022/04/01 11:25:38;;;;;;;4.82;1.67;;;;;;;4.75;57.46;99824.22;5262392;28;20027;-76
2022/04/01 11:28:14;;;;;;;2.88;1.40;;;;;;;4.81;55.30;99811.09;5261553;28;20029;-76
2022/04/01 11:31:03;;;;;;;3.70;1.60;;;;;;;4.80;57.65;99813.75;5257949;28;20024;-75
2022/04/01 11:33:33;;;;;;;4.63;1.38;;;;;;;4.95;57.35;99809.03;5263507;28;20050;-76
2022/04/01 11:36:04;;;;;;;2.75;1.30;;;;;;;5.05;55.79;99804.47;5269291;28;20028;-76
2022/04/01 11:38:35;;;;;;;4.55;1.55;;;;;;;5.11;56.88;99815.53;5269377;28;20031;-76
2022/04/01 11:41:06;;;;;;;2.70;1.25;;;;;;;5.40;56.04;99807.84;5262149;28;20486;-76
2022/04/01 11:43:37;;;;;;;4.95;1.30;;;;;;;5.16;54.97;99812.81;5262834;28;20152;-76
2022/04/01 11:46:09;;;;;;;3.58;1.40;;;;;;;5.56;58.05;99815.13;5262771;28;20032;-76
2022/04/01 11:48:44;;;;;;;4.32;1.30;;;;;;;5.37;55.53;99801.88;5260594;28;20107;-76
2022/04/01 11:51:15;;;;;;;5.03;1.10;;;;;;;5.49;55.63;99802.38;5268569;28;20206;-76
2022/04/01 11:53:51;;;;;;;3.70;1.40;;;;;;;5.53;54.86;99814.34;5268428;28;20089;-76
2022/04/01 11:56:25;;;;;;;2.70;1.40;;;;;;;5.46;54.37;99818.88;5264885;28;20023;-76
2022/04/01 11:59:01;;;;;;;2.90;1.67;;;;;;;5.46;53.40;99812.84;5266216;28;20513;-76
2022/04/01 12:01:34;;;;;;;7.18;1.63;;;;;;;5.29;54.57;99812.44;5267613;28;20024;-76
2022/04/01 12:04:07;;;;;;;3.08;1.45;;;;;;;5.67;55.54;99813.09;5262058;28;20027;-76
2022/04/01 12:09:32;;;;;;;4.78;1.50;;;;;;;5.76;55.36;99799.88;5261578;28;20563;-76
2022/04/01 12:12:02;;;;;;;4.03;1.52;;;;;;;5.82;54.89;99798.88;5263740;28;20466;-76